Terminal Aerodrome Forecast
Issued by NWS Austin/San Antonio, TX

Home | Current Version | Previous Version | Text Only | Print | Product List | Glossary On
Versions: 1 2 3 4 5 6 7 8 9 10 11 12 13
000
FTUS44 KEWX 290539
TAFAUS
TAF
KAUS 290539Z 2906/3012 19005KT P6SM SKC
     FM291500 19012G22KT P6SM FEW010
     FM291700 19020G30KT P6SM FEW030
     FM300000 17015KT P6SM FEW250
     FM300500 18010KT P6SM OVC015
     FM300900 18008KT 4SM BR OVC007=

USA.gov is the U.S. government's official web portal to all federal, state and local government web resources and services.